Pagrindinis puslapis
METAR-TAF:

METAR-TAF

Oro uostai :

Mehongsonas, Tailandas

platuma: 19-18N, ilguma: 097-50E, Aukštis: 267 m

Dabartinis oras

Ataskaita buvo paskelbta 19 minutes, ne 02:00 UTC
Temperatūra 21°C
Drėgmė 83%
Slėgis 1018 hPa
Matomumas: 3500 m
Išsisklaidę debesys ne aukštis 1800 ft
rūkana

METAR: VTCH 220200Z /////KT 3500 BR SCT018 21/18 Q1018 BECMG FM0300 8000 NSW

Laikas: 09:19 (02:19 UTC)

Prognozė

Ataskaita buvo paskelbta 3 valandos ir 19 minutes, ne 23:00 UTC
Prognozė galioja nuo 22 metu 00 UTC su 22 metu 24 UTC
Vėjas 5 kt iš Pietų/Pietryčių
Matomumas: 1000 m
Mažai debesys ne aukštis 1200 ft
rūkana
Tapsmas
nuo 22 metu 01 UTC su 22 metu 03 UTC
Matomumas 10 km arba daugiau
Mažai debesys ne aukštis 2500 ft

TAF: VTCH 212300Z 2200/2224 16005KT 1000 BR FEW012 BECMG 2201/2203 9999 NSW FEW025

Orai ataskaitas ir orų prognozės (METAR, TAF).

turimą stotys yra geltonos ir raudonos taškus žemėlapyje.

Perkelti pele per norėdami pamatyti stoties vardą.

Tada spustelėkite, norėdami matyti oro stebėjimo ir prognozės.

Norėdami pakeisti žemėlapį: spustelėkite ant žalios mygtukų su juodo kryžiaus žemyn,; žalią mygtuką su brūkšneliu, jei norite nutolinti; arba žalių rodyklių gretimoms žemėlapius.


METAR-TAF: